createdAt,value
2018-12-06T00:01:02.508Z,100551.00
2018-12-06T00:03:35.154Z,100544.00
2018-12-06T00:06:08.169Z,100542.00
2018-12-06T00:08:40.972Z,100543.00
2018-12-06T00:11:14.156Z,100538.00
2018-12-06T00:13:49.691Z,100540.00
2018-12-06T00:16:22.036Z,100539.00
2018-12-06T00:19:10.780Z,100547.00
2018-12-06T00:21:43.915Z,100543.00
2018-12-06T00:24:20.509Z,100542.00
2018-12-06T00:26:56.253Z,100542.00
2018-12-06T00:29:28.778Z,100548.00
2018-12-06T00:31:59.793Z,100503.00
2018-12-06T00:34:32.673Z,100533.00
2018-12-06T00:37:05.771Z,100530.00
2018-12-06T00:39:36.796Z,100467.00
2018-12-06T00:42:09.530Z,100539.00
2018-12-06T00:44:46.112Z,100550.00
2018-12-06T00:47:20.822Z,100536.00
2018-12-06T00:52:23.029Z,100540.00
2018-12-06T00:54:55.961Z,100531.00
2018-12-06T00:57:28.842Z,100530.00
2018-12-06T01:00:05.339Z,100529.00
2018-12-06T01:02:40.954Z,100526.00
2018-12-06T01:05:15.929Z,100535.00
2018-12-06T01:07:48.582Z,100530.00
2018-12-06T01:10:21.623Z,100535.00
2018-12-06T01:12:56.976Z,100526.00
2018-12-06T01:15:29.598Z,100530.00
2018-12-06T01:18:02.556Z,100524.00
2018-12-06T01:20:35.410Z,100530.00
2018-12-06T01:23:10.788Z,100538.00
2018-12-06T01:25:43.412Z,100549.00
2018-12-06T01:28:16.020Z,100539.00
2018-12-06T01:30:49.022Z,100535.00
2018-12-06T01:33:24.431Z,100532.00
2018-12-06T01:35:57.098Z,100528.00
2018-12-06T01:38:30.116Z,100520.00
2018-12-06T01:41:03.300Z,100520.00
2018-12-06T01:43:38.851Z,100523.00
2018-12-06T01:46:09.274Z,100513.00
2018-12-06T01:48:45.048Z,100513.00
2018-12-06T01:51:20.580Z,100501.00
2018-12-06T01:53:55.588Z,100491.00
2018-12-06T01:56:30.384Z,100505.00
2018-12-06T01:59:02.978Z,100492.00
2018-12-06T02:01:38.385Z,100503.00
2018-12-06T02:04:10.866Z,100493.00
2018-12-06T02:06:46.253Z,100487.00
2018-12-06T02:09:21.305Z,100482.00
2018-12-06T02:11:56.128Z,100470.00
2018-12-06T02:14:28.658Z,100468.00
2018-12-06T02:17:01.356Z,100479.00
2018-12-06T02:19:34.015Z,100482.00
2018-12-06T02:22:09.377Z,100463.00
2018-12-06T02:24:41.726Z,100488.00
2018-12-06T02:27:15.066Z,100477.00
2018-12-06T02:29:56.400Z,100487.00
2018-12-06T02:32:31.486Z,100486.00
2018-12-06T02:35:03.993Z,100471.00
2018-12-06T02:37:39.354Z,100480.00
2018-12-06T02:40:12.074Z,100476.00
2018-12-06T02:42:45.117Z,100477.00
2018-12-06T02:45:18.035Z,100471.00
2018-12-06T02:47:50.919Z,100476.00
2018-12-06T02:50:22.062Z,100472.00
2018-12-06T02:55:24.680Z,100474.00
2018-12-06T02:57:59.968Z,100470.00
2018-12-06T03:00:35.033Z,100469.00
2018-12-06T03:03:07.670Z,100452.00
2018-12-06T03:08:37.464Z,100452.00
2018-12-06T03:11:08.576Z,100441.00
2018-12-06T03:13:41.426Z,100449.00
2018-12-06T03:16:16.787Z,100461.00
2018-12-06T03:18:51.805Z,100473.00
2018-12-06T03:21:26.548Z,100475.00
2018-12-06T03:23:59.034Z,100471.00
2018-12-06T03:26:35.257Z,100463.00
2018-12-06T03:29:07.893Z,100462.00
2018-12-06T03:31:40.656Z,100479.00
2018-12-06T03:34:15.910Z,100469.00
2018-12-06T03:36:50.742Z,100464.00
2018-12-06T03:39:25.694Z,100460.00
2018-12-06T03:41:58.153Z,100450.00
2018-12-06T03:44:33.283Z,100452.00
2018-12-06T03:47:06.547Z,100453.00
2018-12-06T03:49:39.187Z,100453.00
2018-12-06T03:52:12.453Z,100449.00
2018-12-06T03:57:15.085Z,100449.00
2018-12-06T03:59:48.058Z,100451.00
2018-12-06T04:02:20.930Z,100462.00
2018-12-06T04:04:56.431Z,100454.00
2018-12-06T04:07:31.316Z,100459.00
2018-12-06T04:10:04.211Z,100461.00
2018-12-06T04:12:36.874Z,100457.00
2018-12-06T04:15:09.935Z,100461.00
2018-12-06T04:17:42.769Z,100465.00
2018-12-06T04:20:15.544Z,100474.00
2018-12-06T04:22:48.561Z,100456.00
2018-12-06T04:25:24.033Z,100448.00
2018-12-06T04:27:54.792Z,100440.00
2018-12-06T04:30:27.832Z,100449.00
2018-12-06T04:33:00.908Z,100452.00
2018-12-06T04:35:33.971Z,100445.00
2018-12-06T04:38:07.021Z,100439.00
2018-12-06T04:40:38.096Z,100437.00
2018-12-06T04:43:11.020Z,100441.00
2018-12-06T04:45:47.357Z,100452.00
2018-12-06T04:48:22.486Z,100440.00
2018-12-06T04:50:58.548Z,100437.00
2018-12-06T04:53:33.276Z,100466.00
2018-12-06T04:58:35.303Z,100469.00
2018-12-06T05:01:08.343Z,100469.00
2018-12-06T05:03:41.571Z,100469.00
2018-12-06T05:06:14.670Z,100487.00
2018-12-06T05:08:49.490Z,100484.00
2018-12-06T05:11:22.107Z,100468.00
2018-12-06T05:13:53.581Z,100468.00
2018-12-06T05:16:26.260Z,100476.00
2018-12-06T05:19:01.969Z,100466.00
2018-12-06T05:21:34.776Z,100469.00
2018-12-06T05:24:07.941Z,100480.00
2018-12-06T05:26:40.655Z,100486.00
2018-12-06T05:29:15.908Z,100488.00
2018-12-06T05:31:48.310Z,100486.00
2018-12-06T05:34:23.702Z,100496.00
2018-12-06T05:37:00.407Z,100503.00
2018-12-06T05:39:35.255Z,100514.00
2018-12-06T05:42:07.848Z,100513.00
2018-12-06T05:44:40.510Z,100510.00
2018-12-06T05:47:13.731Z,100509.00
2018-12-06T05:49:49.119Z,100498.00
2018-12-06T05:52:24.207Z,100491.00
2018-12-06T05:54:56.783Z,100495.00
2018-12-06T06:00:03.630Z,100493.00
2018-12-06T06:02:36.132Z,100491.00
2018-12-06T06:05:11.625Z,100489.00
2018-12-06T06:07:44.047Z,100498.00
2018-12-06T06:10:17.057Z,100499.00
2018-12-06T06:12:49.766Z,100495.00
2018-12-06T06:15:22.622Z,100484.00
2018-12-06T06:17:58.196Z,100479.00
2018-12-06T06:20:30.844Z,100464.00
2018-12-06T06:23:03.960Z,100469.00
2018-12-06T06:25:39.663Z,100466.00
2018-12-06T06:28:12.916Z,100472.00
2018-12-06T06:30:48.346Z,100462.00
2018-12-06T06:33:23.067Z,100479.00
2018-12-06T06:35:55.720Z,100485.00
2018-12-06T06:38:28.981Z,100493.00
2018-12-06T06:41:06.414Z,100514.00
2018-12-06T06:43:38.989Z,100508.00
2018-12-06T06:46:14.388Z,100516.00
2018-12-06T06:48:49.443Z,100506.00
2018-12-06T06:51:22.229Z,100513.00
2018-12-06T06:53:57.908Z,100508.00
2018-12-06T06:56:30.760Z,100509.00
2018-12-06T07:01:32.059Z,100535.00
2018-12-06T07:04:07.097Z,100529.00
2018-12-06T07:06:40.703Z,100543.00
2018-12-06T07:09:49.160Z,100558.00
2018-12-06T07:12:21.629Z,100549.00
2018-12-06T07:14:57.420Z,100565.00
2018-12-06T07:17:32.187Z,100576.00
2018-12-06T07:20:05.634Z,100579.00
2018-12-06T07:22:45.388Z,100578.00
2018-12-06T07:25:18.069Z,100556.00
2018-12-06T07:27:51.213Z,100560.00
2018-12-06T07:30:24.476Z,100561.00
2018-12-06T07:32:57.520Z,100569.00
2018-12-06T07:35:32.219Z,100567.00
2018-12-06T07:38:05.327Z,100579.00
2018-12-06T07:40:38.397Z,100579.00
2018-12-06T07:43:13.905Z,100592.00
2018-12-06T07:45:58.296Z,100586.00
2018-12-06T07:48:28.971Z,100581.00
2018-12-06T07:51:04.556Z,100592.00
2018-12-06T07:53:37.271Z,100596.00
2018-12-06T07:56:10.405Z,100597.00
2018-12-06T07:58:43.627Z,100604.00
2018-12-06T08:01:16.802Z,100606.00
2018-12-06T08:03:52.312Z,100600.00
2018-12-06T08:06:25.101Z,100602.00
2018-12-06T08:09:00.697Z,100591.00
2018-12-06T08:11:40.006Z,100602.00
2018-12-06T08:14:14.733Z,100606.00
2018-12-06T08:16:47.749Z,100605.00
2018-12-06T08:19:23.135Z,100594.00
2018-12-06T08:21:58.568Z,100604.00
2018-12-06T08:24:29.720Z,100603.00
2018-12-06T08:27:02.070Z,100604.00
2018-12-06T08:29:38.570Z,100597.00
2018-12-06T08:32:11.483Z,100607.00
2018-12-06T08:34:44.582Z,100605.00
2018-12-06T08:37:17.827Z,100599.00
2018-12-06T08:39:58.869Z,100598.00
2018-12-06T08:42:35.979Z,100557.00
2018-12-06T08:45:09.344Z,100593.00
2018-12-06T08:47:41.677Z,100595.00
2018-12-06T08:50:11.576Z,100598.00
2018-12-06T08:52:41.927Z,100586.00
2018-12-06T08:55:11.286Z,100588.00
2018-12-06T08:57:40.628Z,100574.00
2018-12-06T09:00:12.041Z,100582.00
2018-12-06T09:02:43.422Z,100577.00
2018-12-06T09:05:13.000Z,100593.00
2018-12-06T09:07:43.402Z,100587.00
2018-12-06T09:10:12.349Z,100592.00
2018-12-06T09:12:41.615Z,100592.00
2018-12-06T09:15:10.941Z,100592.00
2018-12-06T09:17:41.263Z,100591.00
2018-12-06T09:20:10.792Z,100590.00
2018-12-06T09:22:44.226Z,100597.00
2018-12-06T09:25:23.070Z,100599.00
2018-12-06T09:27:52.372Z,100597.00
2018-12-06T09:30:21.632Z,100609.00
2018-12-06T09:32:51.252Z,100611.00
2018-12-06T09:35:24.675Z,100614.00
2018-12-06T09:37:55.226Z,100612.00
2018-12-06T09:40:30.520Z,100611.00
2018-12-06T09:42:59.826Z,100611.00
2018-12-06T09:45:29.224Z,100607.00
2018-12-06T09:47:58.623Z,100613.00
2018-12-06T09:50:27.851Z,100607.00
2018-12-06T09:52:57.257Z,100605.00
2018-12-06T09:55:26.613Z,100610.00
2018-12-06T09:57:55.882Z,100597.00
2018-12-06T10:00:28.328Z,100602.00
2018-12-06T10:03:00.109Z,100589.00
2018-12-06T10:05:54.150Z,100582.00
2018-12-06T10:08:23.550Z,100579.00
2018-12-06T10:10:52.898Z,100576.00
2018-12-06T10:13:23.218Z,100582.00
2018-12-06T10:15:53.569Z,100590.00
2018-12-06T10:18:22.847Z,100588.00
2018-12-06T10:20:52.089Z,100574.00
2018-12-06T10:23:21.377Z,100594.00
2018-12-06T10:25:50.788Z,100597.00
2018-12-06T10:28:20.103Z,100603.00
2018-12-06T10:30:49.344Z,100610.00
2018-12-06T10:33:18.638Z,100602.00
2018-12-06T10:35:47.900Z,100598.00
2018-12-06T10:38:17.206Z,100608.00
2018-12-06T10:40:46.483Z,100610.00
2018-12-06T10:43:15.846Z,100610.00
2018-12-06T10:45:58.734Z,100610.00
2018-12-06T10:48:28.030Z,100608.00
2018-12-06T10:51:13.139Z,100615.00
2018-12-06T10:53:46.389Z,100607.00
2018-12-06T10:56:23.576Z,100620.00
2018-12-06T10:59:00.485Z,100625.00
2018-12-06T11:01:36.806Z,100622.00
2018-12-06T11:07:09.744Z,100626.00
2018-12-06T11:12:39.577Z,100636.00
2018-12-06T11:15:10.275Z,100631.00
2018-12-06T11:17:50.087Z,100628.00
2018-12-06T11:20:22.556Z,100624.00
2018-12-06T11:22:53.528Z,100608.00
2018-12-06T11:28:46.876Z,100608.00
2018-12-06T11:31:19.594Z,100605.00
2018-12-06T11:34:13.493Z,100599.00
2018-12-06T11:36:45.877Z,100588.00
2018-12-06T11:42:24.717Z,100608.00
2018-12-06T11:51:03.914Z,100623.00
2018-12-06T11:53:35.090Z,100608.00
2018-12-06T11:56:18.518Z,100618.00
2018-12-06T11:59:02.051Z,100633.00
2018-12-06T12:01:35.251Z,100627.00
2018-12-06T12:04:30.175Z,100634.00
2018-12-06T12:06:59.654Z,100628.00
2018-12-06T12:12:35.171Z,100626.00
2018-12-06T12:15:19.647Z,100616.00
2018-12-06T12:17:52.433Z,100609.00
2018-12-06T12:23:27.011Z,100607.00
2018-12-06T12:25:59.877Z,100611.00
2018-12-06T12:28:45.301Z,100616.00
2018-12-06T12:31:14.575Z,100615.00
2018-12-06T12:33:43.876Z,100611.00
2018-12-06T12:36:41.918Z,100611.00
2018-12-06T12:42:17.876Z,100614.00
2018-12-06T12:44:48.563Z,100608.00
2018-12-06T12:47:23.884Z,100618.00
2018-12-06T12:53:05.074Z,100630.00
2018-12-06T12:55:39.673Z,100635.00
2018-12-06T12:58:15.991Z,100639.00
2018-12-06T13:00:48.728Z,100631.00
2018-12-06T13:06:25.175Z,100629.00
2018-12-06T13:08:56.654Z,100629.00
2018-12-06T13:17:37.530Z,100609.00
2018-12-06T13:20:10.738Z,100609.00
2018-12-06T13:22:47.458Z,100616.00
2018-12-06T13:25:45.980Z,100619.00
2018-12-06T13:28:20.844Z,100620.00
2018-12-06T13:30:54.451Z,100619.00
2018-12-06T13:33:23.766Z,100612.00
2018-12-06T13:35:56.465Z,100600.00
2018-12-06T13:41:57.973Z,100615.00
2018-12-06T13:44:30.617Z,100611.00
2018-12-06T13:47:12.464Z,100617.00
2018-12-06T13:49:45.145Z,100617.00
2018-12-06T13:52:14.812Z,100615.00
2018-12-06T13:55:10.859Z,100619.00
2018-12-06T13:57:43.585Z,100613.00
2018-12-06T14:00:16.152Z,100611.00
2018-12-06T14:02:51.517Z,100617.00
2018-12-06T14:08:26.400Z,100623.00
2018-12-06T14:14:04.933Z,100589.00
2018-12-06T14:16:50.090Z,100624.00
2018-12-06T14:22:39.302Z,100619.00
2018-12-06T14:25:14.789Z,100623.00
2018-12-06T14:37:02.203Z,100624.00
2018-12-06T14:39:33.149Z,100634.00
2018-12-06T14:42:14.384Z,100635.00
2018-12-06T14:44:47.272Z,100630.00
2018-12-06T14:50:33.363Z,100638.00
2018-12-06T14:53:04.674Z,100588.00
2018-12-06T14:55:39.767Z,100636.00
2018-12-06T14:58:15.536Z,100636.00
2018-12-06T15:03:53.750Z,100635.00
2018-12-06T15:06:28.675Z,100634.00
2018-12-06T15:09:20.135Z,100644.00
2018-12-06T15:11:52.883Z,100643.00
2018-12-06T15:14:25.742Z,100632.00
2018-12-06T15:16:58.373Z,100629.00
2018-12-06T15:19:50.323Z,100640.00
2018-12-06T15:25:26.069Z,100655.00
2018-12-06T15:27:57.153Z,100642.00
2018-12-06T15:30:27.867Z,100634.00
2018-12-06T15:33:01.121Z,100634.00
2018-12-06T15:35:34.121Z,100624.00
2018-12-06T15:38:16.738Z,100627.00
2018-12-06T15:40:49.814Z,100636.00
2018-12-06T15:43:25.133Z,100627.00
2018-12-06T15:45:59.923Z,100629.00
2018-12-06T15:48:32.638Z,100628.00
2018-12-06T15:51:05.873Z,100637.00
2018-12-06T15:53:36.968Z,100637.00
2018-12-06T15:56:08.330Z,100632.00
2018-12-06T15:58:41.391Z,100621.00
2018-12-06T16:01:18.899Z,100614.00
2018-12-06T16:03:49.622Z,100625.00
2018-12-06T16:06:33.658Z,100625.00
2018-12-06T16:09:09.101Z,100617.00
2018-12-06T16:11:41.451Z,100616.00
2018-12-06T16:14:12.560Z,100611.00
2018-12-06T16:19:14.389Z,100593.00
2018-12-06T16:22:08.384Z,100596.00
2018-12-06T16:24:57.900Z,100597.00
2018-12-06T16:27:33.052Z,100606.00
2018-12-06T16:30:09.311Z,100558.00
2018-12-06T16:32:42.504Z,100609.00
2018-12-06T16:35:26.132Z,100610.00
2018-12-06T16:37:57.071Z,100617.00
2018-12-06T16:40:26.473Z,100617.00
2018-12-06T16:43:14.244Z,100623.00
2018-12-06T16:45:46.852Z,100615.00
2018-12-06T16:51:19.194Z,100625.00
2018-12-06T16:53:51.881Z,100618.00
2018-12-06T16:56:24.795Z,100614.00
2018-12-06T16:58:58.058Z,100617.00
2018-12-06T17:01:31.056Z,100623.00
2018-12-06T17:07:09.972Z,100601.00
2018-12-06T17:09:40.352Z,100596.00
2018-12-06T17:12:34.169Z,100597.00
2018-12-06T17:15:09.129Z,100583.00
2018-12-06T17:18:00.602Z,100587.00
2018-12-06T17:20:35.308Z,100590.00
2018-12-06T17:23:07.788Z,100591.00
2018-12-06T17:25:37.065Z,100588.00
2018-12-06T17:28:18.167Z,100583.00
2018-12-06T17:30:51.283Z,100580.00
2018-12-06T17:33:22.359Z,100600.00
2018-12-06T17:35:55.165Z,100553.00
2018-12-06T17:38:53.126Z,100580.00
2018-12-06T17:41:28.352Z,100587.00
2018-12-06T17:47:01.368Z,100578.00
2018-12-06T17:52:59.595Z,100578.00
2018-12-06T17:58:38.832Z,100567.00
2018-12-06T18:01:11.496Z,100560.00
2018-12-06T18:03:44.599Z,100542.00
2018-12-06T18:06:20.193Z,100558.00
2018-12-06T18:08:57.962Z,100539.00
2018-12-06T18:11:30.483Z,100564.00
2018-12-06T18:14:01.610Z,100563.00
2018-12-06T18:16:34.386Z,100569.00
2018-12-06T18:19:07.394Z,100574.00
2018-12-06T18:21:42.100Z,100567.00
2018-12-06T18:24:18.791Z,100575.00
2018-12-06T18:26:49.610Z,100567.00
2018-12-06T18:29:20.770Z,100561.00
2018-12-06T18:31:53.609Z,100564.00
2018-12-06T18:34:28.883Z,100563.00
2018-12-06T18:37:05.543Z,100560.00
2018-12-06T18:39:42.207Z,100562.00
2018-12-06T18:45:22.238Z,100564.00
2018-12-06T18:47:55.559Z,100567.00
2018-12-06T18:50:51.465Z,100561.00
2018-12-06T18:53:26.574Z,100563.00
2018-12-06T18:56:06.162Z,100566.00
2018-12-06T18:58:41.219Z,100563.00
2018-12-06T19:01:10.600Z,100566.00
2018-12-06T19:03:45.568Z,100561.00
2018-12-06T19:06:18.178Z,100568.00
2018-12-06T19:09:02.042Z,100546.00
2018-12-06T19:11:37.504Z,100555.00
2018-12-06T19:14:12.399Z,100485.00
2018-12-06T19:16:45.061Z,100556.00
2018-12-06T19:19:17.683Z,100558.00
2018-12-06T19:21:53.333Z,100551.00
2018-12-06T19:24:27.543Z,100563.00
2018-12-06T19:33:03.422Z,100557.00
2018-12-06T19:35:36.415Z,100554.00
2018-12-06T19:41:09.632Z,100522.00
2018-12-06T19:46:41.462Z,100516.00
2018-12-06T19:49:21.025Z,100514.00
2018-12-06T19:54:54.298Z,100504.00
2018-12-06T19:57:23.632Z,100504.00
2018-12-06T19:59:52.927Z,100519.00
2018-12-06T20:02:36.612Z,100522.00
2018-12-06T20:08:08.983Z,100539.00
2018-12-06T20:14:10.454Z,100521.00
2018-12-06T20:19:57.851Z,100500.00
2018-12-06T20:25:30.289Z,100497.00
2018-12-06T20:28:02.836Z,100485.00
2018-12-06T20:33:41.689Z,100487.00
2018-12-06T20:39:43.581Z,100489.00
2018-12-06T20:42:16.023Z,100480.00
2018-12-06T20:44:57.584Z,100481.00
2018-12-06T20:47:26.833Z,100469.00
2018-12-06T20:52:59.168Z,100473.00
2018-12-06T20:55:33.999Z,100476.00
2018-12-06T20:58:03.358Z,100461.00
2018-12-06T21:00:36.619Z,100435.00
2018-12-06T21:06:21.815Z,100472.00
2018-12-06T21:08:54.705Z,100465.00
2018-12-06T21:11:52.870Z,100468.00
2018-12-06T21:14:28.854Z,100462.00
2018-12-06T21:17:01.618Z,100470.00
2018-12-06T21:19:34.727Z,100465.00
2018-12-06T21:24:55.357Z,100468.00
2018-12-06T21:27:27.958Z,100467.00
2018-12-06T21:30:00.907Z,100471.00
2018-12-06T21:35:38.411Z,100465.00
2018-12-06T21:38:10.984Z,100465.00
2018-12-06T21:40:48.265Z,100463.00
2018-12-06T21:43:20.804Z,100459.00
2018-12-06T21:45:54.039Z,100464.00
2018-12-06T21:48:29.284Z,100466.00
2018-12-06T21:51:04.258Z,100462.00
2018-12-06T21:53:39.012Z,100453.00
2018-12-06T21:56:13.835Z,100458.00
2018-12-06T21:58:44.359Z,100448.00
2018-12-06T22:01:19.740Z,100451.00
2018-12-06T22:03:52.142Z,100435.00
2018-12-06T22:09:30.819Z,100396.00
2018-12-06T22:12:16.180Z,100418.00
2018-12-06T22:17:57.279Z,100428.00
2018-12-06T22:20:32.095Z,100424.00
2018-12-06T22:23:03.821Z,100422.00
2018-12-06T22:25:33.135Z,100422.00
2018-12-06T22:28:02.439Z,100415.00
2018-12-06T22:30:33.076Z,100431.00
2018-12-06T22:33:02.397Z,100425.00
2018-12-06T22:35:31.714Z,100428.00
2018-12-06T22:38:01.070Z,100424.00
2018-12-06T22:40:40.961Z,100423.00
2018-12-06T22:43:10.279Z,100432.00
2018-12-06T22:46:11.163Z,100424.00
2018-12-06T22:48:41.617Z,100427.00
2018-12-06T22:51:14.931Z,100420.00
2018-12-06T22:53:55.407Z,100421.00
2018-12-06T22:56:24.948Z,100421.00
2018-12-06T22:58:54.406Z,100424.00
2018-12-06T23:01:29.139Z,100414.00
2018-12-06T23:03:58.470Z,100425.00
2018-12-06T23:06:27.869Z,100416.00
2018-12-06T23:08:58.288Z,100430.00
2018-12-06T23:11:27.639Z,100426.00
2018-12-06T23:13:56.991Z,100419.00
2018-12-06T23:16:40.191Z,100416.00
2018-12-06T23:19:09.545Z,100417.00
2018-12-06T23:21:38.826Z,100415.00
2018-12-06T23:24:08.107Z,100414.00
2018-12-06T23:26:37.743Z,100408.00
2018-12-06T23:32:10.322Z,100422.00
2018-12-06T23:34:51.588Z,100409.00
2018-12-06T23:37:23.068Z,100423.00
2018-12-06T23:42:54.988Z,100413.00
2018-12-06T23:45:24.316Z,100412.00
2018-12-06T23:51:12.654Z,100415.00
2018-12-06T23:53:41.962Z,100412.00
2018-12-06T23:56:11.331Z,100406.00
2018-12-06T23:58:40.627Z,100404.00
